sensor_id;sensor_type;location;lat;lon;timestamp;P1;durP1;ratioP1;P2;durP2;ratioP2
73850;SDS011;62190;51.548;5.688;2023-07-22T00:02:01;13.58;;;8.40;;
73850;SDS011;62190;51.548;5.688;2023-07-22T00:04:31;13.98;;;8.90;;
73850;SDS011;62190;51.548;5.688;2023-07-22T00:07:00;12.28;;;8.45;;
73850;SDS011;62190;51.548;5.688;2023-07-22T00:09:28;15.45;;;8.78;;
73850;SDS011;62190;51.548;5.688;2023-07-22T00:11:55;15.35;;;9.70;;
73850;SDS011;62190;51.548;5.688;2023-07-22T00:14:22;13.83;;;8.98;;
73850;SDS011;62190;51.548;5.688;2023-07-22T00:16:50;14.55;;;8.70;;
73850;SDS011;62190;51.548;5.688;2023-07-22T00:19:18;12.68;;;8.55;;
73850;SDS011;62190;51.548;5.688;2023-07-22T00:21:46;14.80;;;8.78;;
73850;SDS011;62190;51.548;5.688;2023-07-22T00:24:15;15.03;;;8.95;;
73850;SDS011;62190;51.548;5.688;2023-07-22T00:26:42;15.80;;;9.05;;
73850;SDS011;62190;51.548;5.688;2023-07-22T00:29:11;14.45;;;9.18;;
73850;SDS011;62190;51.548;5.688;2023-07-22T00:31:40;15.25;;;9.33;;
73850;SDS011;62190;51.548;5.688;2023-07-22T00:34:11;13.25;;;8.60;;
73850;SDS011;62190;51.548;5.688;2023-07-22T00:36:39;14.25;;;8.78;;
73850;SDS011;62190;51.548;5.688;2023-07-22T00:39:08;15.58;;;9.50;;
73850;SDS011;62190;51.548;5.688;2023-07-22T00:41:37;13.95;;;9.20;;
73850;SDS011;62190;51.548;5.688;2023-07-22T00:44:07;15.13;;;9.95;;
73850;SDS011;62190;51.548;5.688;2023-07-22T00:46:36;15.25;;;9.65;;
73850;SDS011;62190;51.548;5.688;2023-07-22T00:49:09;15.10;;;9.55;;
73850;SDS011;62190;51.548;5.688;2023-07-22T00:51:37;18.23;;;11.18;;
73850;SDS011;62190;51.548;5.688;2023-07-22T00:54:04;16.80;;;9.63;;
73850;SDS011;62190;51.548;5.688;2023-07-22T00:56:35;16.67;;;10.13;;
73850;SDS011;62190;51.548;5.688;2023-07-22T00:59:03;17.23;;;9.73;;
73850;SDS011;62190;51.548;5.688;2023-07-22T01:01:31;16.30;;;10.40;;
73850;SDS011;62190;51.548;5.688;2023-07-22T01:03:59;17.23;;;11.05;;
73850;SDS011;62190;51.548;5.688;2023-07-22T01:06:28;17.25;;;10.43;;
73850;SDS011;62190;51.548;5.688;2023-07-22T01:08:59;19.00;;;11.33;;
73850;SDS011;62190;51.548;5.688;2023-07-22T01:11:26;16.55;;;10.70;;
73850;SDS011;62190;51.548;5.688;2023-07-22T01:13:53;17.07;;;10.32;;
73850;SDS011;62190;51.548;5.688;2023-07-22T01:16:24;17.73;;;10.72;;
73850;SDS011;62190;51.548;5.688;2023-07-22T01:18:54;14.47;;;9.60;;
73850;SDS011;62190;51.548;5.688;2023-07-22T01:21:24;16.27;;;9.78;;
73850;SDS011;62190;51.548;5.688;2023-07-22T01:23:52;16.80;;;9.95;;
73850;SDS011;62190;51.548;5.688;2023-07-22T01:26:19;18.10;;;10.53;;
73850;SDS011;62190;51.548;5.688;2023-07-22T01:28:47;19.50;;;10.45;;
73850;SDS011;62190;51.548;5.688;2023-07-22T01:31:14;15.78;;;10.43;;
73850;SDS011;62190;51.548;5.688;2023-07-22T01:33:43;14.05;;;9.50;;
73850;SDS011;62190;51.548;5.688;2023-07-22T01:36:12;18.05;;;10.15;;
73850;SDS011;62190;51.548;5.688;2023-07-22T01:38:39;14.85;;;9.85;;
73850;SDS011;62190;51.548;5.688;2023-07-22T01:41:06;16.93;;;10.38;;
73850;SDS011;62190;51.548;5.688;2023-07-22T01:43:36;15.30;;;9.95;;
73850;SDS011;62190;51.548;5.688;2023-07-22T01:46:04;16.77;;;9.90;;
73850;SDS011;62190;51.548;5.688;2023-07-22T01:48:33;16.15;;;10.25;;
73850;SDS011;62190;51.548;5.688;2023-07-22T01:51:04;17.50;;;9.75;;
73850;SDS011;62190;51.548;5.688;2023-07-22T01:53:32;19.35;;;10.32;;
73850;SDS011;62190;51.548;5.688;2023-07-22T01:56:00;17.40;;;11.25;;
73850;SDS011;62190;51.548;5.688;2023-07-22T01:58:27;16.90;;;10.30;;
73850;SDS011;62190;51.548;5.688;2023-07-22T02:00:55;16.90;;;10.50;;
73850;SDS011;62190;51.548;5.688;2023-07-22T02:03:22;16.85;;;10.03;;
73850;SDS011;62190;51.548;5.688;2023-07-22T02:05:50;17.15;;;10.32;;
73850;SDS011;62190;51.548;5.688;2023-07-22T02:08:19;14.90;;;10.05;;
73850;SDS011;62190;51.548;5.688;2023-07-22T02:10:47;15.55;;;9.75;;
73850;SDS011;62190;51.548;5.688;2023-07-22T02:13:14;18.12;;;10.80;;
73850;SDS011;62190;51.548;5.688;2023-07-22T02:15:43;16.90;;;9.80;;
73850;SDS011;62190;51.548;5.688;2023-07-22T02:18:14;13.90;;;9.20;;
73850;SDS011;62190;51.548;5.688;2023-07-22T02:20:42;17.35;;;10.80;;
73850;SDS011;62190;51.548;5.688;2023-07-22T02:23:09;18.95;;;10.58;;
73850;SDS011;62190;51.548;5.688;2023-07-22T02:25:37;17.50;;;11.03;;
73850;SDS011;62190;51.548;5.688;2023-07-22T02:28:04;17.10;;;10.55;;
73850;SDS011;62190;51.548;5.688;2023-07-22T02:30:35;15.55;;;8.80;;
73850;SDS011;62190;51.548;5.688;2023-07-22T02:33:05;16.93;;;9.90;;
73850;SDS011;62190;51.548;5.688;2023-07-22T02:35:32;19.27;;;10.50;;
73850;SDS011;62190;51.548;5.688;2023-07-22T02:38:00;17.20;;;9.33;;
73850;SDS011;62190;51.548;5.688;2023-07-22T02:40:28;14.65;;;9.90;;
73850;SDS011;62190;51.548;5.688;2023-07-22T02:42:55;16.82;;;9.90;;
73850;SDS011;62190;51.548;5.688;2023-07-22T02:45:22;14.38;;;9.88;;
73850;SDS011;62190;51.548;5.688;2023-07-22T02:47:50;16.65;;;9.45;;
73850;SDS011;62190;51.548;5.688;2023-07-22T02:50:18;16.37;;;9.63;;
73850;SDS011;62190;51.548;5.688;2023-07-22T02:52:47;17.02;;;10.65;;
73850;SDS011;62190;51.548;5.688;2023-07-22T02:55:15;14.70;;;9.28;;
73850;SDS011;62190;51.548;5.688;2023-07-22T02:57:46;16.45;;;10.08;;
73850;SDS011;62190;51.548;5.688;2023-07-22T03:00:15;16.87;;;9.63;;
73850;SDS011;62190;51.548;5.688;2023-07-22T03:02:45;15.40;;;9.38;;
73850;SDS011;62190;51.548;5.688;2023-07-22T03:05:14;16.55;;;9.90;;
73850;SDS011;62190;51.548;5.688;2023-07-22T03:10:11;16.77;;;10.08;;
73850;SDS011;62190;51.548;5.688;2023-07-22T03:12:39;19.32;;;10.43;;
73850;SDS011;62190;51.548;5.688;2023-07-22T03:15:06;18.48;;;10.50;;
73850;SDS011;62190;51.548;5.688;2023-07-22T03:17:34;18.40;;;9.93;;
73850;SDS011;62190;51.548;5.688;2023-07-22T03:20:07;19.77;;;10.93;;
73850;SDS011;62190;51.548;5.688;2023-07-22T03:22:38;18.85;;;11.35;;
73850;SDS011;62190;51.548;5.688;2023-07-22T03:25:06;18.57;;;11.12;;
73850;SDS011;62190;51.548;5.688;2023-07-22T03:27:38;19.55;;;10.75;;
73850;SDS011;62190;51.548;5.688;2023-07-22T03:30:06;19.25;;;10.98;;
73850;SDS011;62190;51.548;5.688;2023-07-22T03:32:34;19.05;;;10.82;;
73850;SDS011;62190;51.548;5.688;2023-07-22T03:35:01;21.97;;;12.18;;
73850;SDS011;62190;51.548;5.688;2023-07-22T03:37:29;20.72;;;11.70;;
73850;SDS011;62190;51.548;5.688;2023-07-22T03:39:58;22.98;;;12.53;;
73850;SDS011;62190;51.548;5.688;2023-07-22T03:42:25;22.42;;;12.10;;
73850;SDS011;62190;51.548;5.688;2023-07-22T03:44:54;22.48;;;12.37;;
73850;SDS011;62190;51.548;5.688;2023-07-22T03:47:25;20.57;;;12.15;;
73850;SDS011;62190;51.548;5.688;2023-07-22T03:49:52;22.30;;;12.82;;
73850;SDS011;62190;51.548;5.688;2023-07-22T03:52:21;24.67;;;13.08;;
73850;SDS011;62190;51.548;5.688;2023-07-22T03:54:49;27.80;;;13.35;;
73850;SDS011;62190;51.548;5.688;2023-07-22T03:57:18;26.20;;;12.73;;
73850;SDS011;62190;51.548;5.688;2023-07-22T03:59:45;25.97;;;13.40;;
73850;SDS011;62190;51.548;5.688;2023-07-22T04:02:12;26.57;;;14.03;;
73850;SDS011;62190;51.548;5.688;2023-07-22T04:04:40;24.90;;;13.18;;
73850;SDS011;62190;51.548;5.688;2023-07-22T04:07:07;29.95;;;13.75;;
73850;SDS011;62190;51.548;5.688;2023-07-22T04:09:35;23.50;;;13.55;;
73850;SDS011;62190;51.548;5.688;2023-07-22T04:12:02;28.47;;;13.68;;
73850;SDS011;62190;51.548;5.688;2023-07-22T04:14:29;24.15;;;12.93;;
73850;SDS011;62190;51.548;5.688;2023-07-22T04:16:57;20.92;;;12.43;;
73850;SDS011;62190;51.548;5.688;2023-07-22T04:19:24;26.15;;;13.72;;
73850;SDS011;62190;51.548;5.688;2023-07-22T04:21:53;26.00;;;14.55;;
73850;SDS011;62190;51.548;5.688;2023-07-22T04:24:21;29.32;;;13.40;;
73850;SDS011;62190;51.548;5.688;2023-07-22T04:26:48;25.75;;;12.85;;
73850;SDS011;62190;51.548;5.688;2023-07-22T04:29:15;23.75;;;13.32;;
73850;SDS011;62190;51.548;5.688;2023-07-22T04:31:43;32.73;;;15.48;;
73850;SDS011;62190;51.548;5.688;2023-07-22T04:34:10;26.10;;;13.88;;
73850;SDS011;62190;51.548;5.688;2023-07-22T04:36:38;28.62;;;14.05;;
73850;SDS011;62190;51.548;5.688;2023-07-22T04:39:05;26.17;;;14.07;;
73850;SDS011;62190;51.548;5.688;2023-07-22T04:41:33;28.50;;;14.43;;
73850;SDS011;62190;51.548;5.688;2023-07-22T04:44:01;27.27;;;14.80;;
73850;SDS011;62190;51.548;5.688;2023-07-22T04:46:29;23.95;;;14.18;;
73850;SDS011;62190;51.548;5.688;2023-07-22T04:48:56;25.10;;;12.93;;
73850;SDS011;62190;51.548;5.688;2023-07-22T04:51:24;21.95;;;12.25;;
73850;SDS011;62190;51.548;5.688;2023-07-22T04:53:52;21.20;;;12.25;;
73850;SDS011;62190;51.548;5.688;2023-07-22T04:56:20;23.38;;;12.60;;
73850;SDS011;62190;51.548;5.688;2023-07-22T04:58:47;19.37;;;12.20;;
73850;SDS011;62190;51.548;5.688;2023-07-22T05:01:15;19.90;;;12.93;;
73850;SDS011;62190;51.548;5.688;2023-07-22T05:03:42;18.80;;;11.45;;
73850;SDS011;62190;51.548;5.688;2023-07-22T05:06:10;19.70;;;9.98;;
73850;SDS011;62190;51.548;5.688;2023-07-22T05:08:37;19.73;;;10.58;;
73850;SDS011;62190;51.548;5.688;2023-07-22T05:11:06;18.23;;;11.15;;
73850;SDS011;62190;51.548;5.688;2023-07-22T05:13:33;17.20;;;9.68;;
73850;SDS011;62190;51.548;5.688;2023-07-22T05:16:01;18.23;;;9.95;;
73850;SDS011;62190;51.548;5.688;2023-07-22T05:18:28;17.92;;;9.43;;
73850;SDS011;62190;51.548;5.688;2023-07-22T05:20:55;16.10;;;9.00;;
73850;SDS011;62190;51.548;5.688;2023-07-22T05:23:23;14.65;;;9.40;;
73850;SDS011;62190;51.548;5.688;2023-07-22T05:25:51;15.90;;;9.83;;
73850;SDS011;62190;51.548;5.688;2023-07-22T05:28:19;15.38;;;10.15;;
73850;SDS011;62190;51.548;5.688;2023-07-22T05:30:46;16.25;;;8.90;;
73850;SDS011;62190;51.548;5.688;2023-07-22T05:33:13;15.15;;;9.15;;
73850;SDS011;62190;51.548;5.688;2023-07-22T05:35:41;14.63;;;9.60;;
73850;SDS011;62190;51.548;5.688;2023-07-22T05:38:08;18.25;;;9.60;;
73850;SDS011;62190;51.548;5.688;2023-07-22T05:40:35;14.25;;;8.73;;
73850;SDS011;62190;51.548;5.688;2023-07-22T05:43:03;19.62;;;10.80;;
73850;SDS011;62190;51.548;5.688;2023-07-22T05:45:30;16.40;;;10.38;;
73850;SDS011;62190;51.548;5.688;2023-07-22T05:47:57;13.78;;;9.13;;
73850;SDS011;62190;51.548;5.688;2023-07-22T05:50:24;14.78;;;8.75;;
73850;SDS011;62190;51.548;5.688;2023-07-22T05:52:52;13.85;;;9.00;;
73850;SDS011;62190;51.548;5.688;2023-07-22T05:55:19;13.25;;;9.93;;
73850;SDS011;62190;51.548;5.688;2023-07-22T05:57:46;16.45;;;9.18;;
73850;SDS011;62190;51.548;5.688;2023-07-22T06:00:14;12.70;;;8.48;;
73850;SDS011;62190;51.548;5.688;2023-07-22T06:02:43;12.50;;;8.68;;
73850;SDS011;62190;51.548;5.688;2023-07-22T06:05:10;14.47;;;8.75;;
73850;SDS011;62190;51.548;5.688;2023-07-22T06:07:37;15.08;;;9.70;;
73850;SDS011;62190;51.548;5.688;2023-07-22T06:10:05;14.70;;;8.73;;
73850;SDS011;62190;51.548;5.688;2023-07-22T06:12:34;14.47;;;9.30;;
73850;SDS011;62190;51.548;5.688;2023-07-22T06:15:01;11.97;;;8.03;;
73850;SDS011;62190;51.548;5.688;2023-07-22T06:17:29;12.47;;;8.65;;
73850;SDS011;62190;51.548;5.688;2023-07-22T06:19:56;14.63;;;8.13;;
73850;SDS011;62190;51.548;5.688;2023-07-22T06:22:24;14.10;;;8.20;;
73850;SDS011;62190;51.548;5.688;2023-07-22T06:24:51;13.75;;;8.98;;
73850;SDS011;62190;51.548;5.688;2023-07-22T06:27:18;13.25;;;8.38;;
73850;SDS011;62190;51.548;5.688;2023-07-22T06:29:46;13.55;;;8.08;;
73850;SDS011;62190;51.548;5.688;2023-07-22T06:32:13;15.72;;;8.58;;
73850;SDS011;62190;51.548;5.688;2023-07-22T06:34:40;13.22;;;8.20;;
73850;SDS011;62190;51.548;5.688;2023-07-22T06:37:08;12.45;;;8.63;;
73850;SDS011;62190;51.548;5.688;2023-07-22T06:39:35;15.40;;;8.88;;
73850;SDS011;62190;51.548;5.688;2023-07-22T06:42:02;14.05;;;8.40;;
73850;SDS011;62190;51.548;5.688;2023-07-22T06:44:30;12.95;;;8.93;;
73850;SDS011;62190;51.548;5.688;2023-07-22T06:46:57;15.55;;;9.15;;
73850;SDS011;62190;51.548;5.688;2023-07-22T06:49:24;14.05;;;8.25;;
73850;SDS011;62190;51.548;5.688;2023-07-22T06:51:52;14.10;;;8.40;;
73850;SDS011;62190;51.548;5.688;2023-07-22T06:54:19;12.47;;;7.92;;
73850;SDS011;62190;51.548;5.688;2023-07-22T06:56:46;14.20;;;8.68;;
73850;SDS011;62190;51.548;5.688;2023-07-22T06:59:14;10.43;;;7.75;;
73850;SDS011;62190;51.548;5.688;2023-07-22T07:01:41;14.98;;;9.13;;
73850;SDS011;62190;51.548;5.688;2023-07-22T07:04:08;13.20;;;9.35;;
73850;SDS011;62190;51.548;5.688;2023-07-22T07:06:36;13.45;;;8.48;;
73850;SDS011;62190;51.548;5.688;2023-07-22T07:09:04;14.25;;;8.65;;
73850;SDS011;62190;51.548;5.688;2023-07-22T07:11:31;13.78;;;8.13;;
73850;SDS011;62190;51.548;5.688;2023-07-22T07:13:58;13.85;;;8.50;;
73850;SDS011;62190;51.548;5.688;2023-07-22T07:16:29;15.38;;;9.88;;
73850;SDS011;62190;51.548;5.688;2023-07-22T07:18:58;12.05;;;7.60;;
73850;SDS011;62190;51.548;5.688;2023-07-22T07:21:26;16.48;;;9.60;;
73850;SDS011;62190;51.548;5.688;2023-07-22T07:23:54;13.62;;;9.13;;
73850;SDS011;62190;51.548;5.688;2023-07-22T07:26:21;15.30;;;8.25;;
73850;SDS011;62190;51.548;5.688;2023-07-22T07:28:49;12.30;;;8.18;;
73850;SDS011;62190;51.548;5.688;2023-07-22T07:31:17;12.98;;;7.65;;
73850;SDS011;62190;51.548;5.688;2023-07-22T07:33:44;15.20;;;8.58;;
73850;SDS011;62190;51.548;5.688;2023-07-22T07:36:12;14.73;;;8.75;;
73850;SDS011;62190;51.548;5.688;2023-07-22T07:38:40;15.10;;;8.45;;
73850;SDS011;62190;51.548;5.688;2023-07-22T07:41:07;14.20;;;9.70;;
73850;SDS011;62190;51.548;5.688;2023-07-22T07:43:37;15.05;;;8.40;;
73850;SDS011;62190;51.548;5.688;2023-07-22T07:46:25;16.70;;;10.18;;
73850;SDS011;62190;51.548;5.688;2023-07-22T07:49:01;16.57;;;9.13;;
73850;SDS011;62190;51.548;5.688;2023-07-22T07:51:29;16.52;;;9.18;;
73850;SDS011;62190;51.548;5.688;2023-07-22T07:53:58;14.18;;;8.50;;
73850;SDS011;62190;51.548;5.688;2023-07-22T07:56:25;14.47;;;8.05;;
73850;SDS011;62190;51.548;5.688;2023-07-22T07:58:53;17.62;;;7.97;;
73850;SDS011;62190;51.548;5.688;2023-07-22T08:01:21;16.90;;;8.28;;
73850;SDS011;62190;51.548;5.688;2023-07-22T08:03:48;16.90;;;8.28;;
73850;SDS011;62190;51.548;5.688;2023-07-22T08:06:15;15.43;;;7.85;;
73850;SDS011;62190;51.548;5.688;2023-07-22T08:08:43;12.05;;;7.47;;
73850;SDS011;62190;51.548;5.688;2023-07-22T08:11:11;13.22;;;7.20;;
73850;SDS011;62190;51.548;5.688;2023-07-22T08:13:40;13.50;;;7.20;;
73850;SDS011;62190;51.548;5.688;2023-07-22T08:16:08;10.03;;;6.92;;
73850;SDS011;62190;51.548;5.688;2023-07-22T08:18:37;12.33;;;6.47;;
73850;SDS011;62190;51.548;5.688;2023-07-22T08:21:04;9.65;;;5.67;;
73850;SDS011;62190;51.548;5.688;2023-07-22T08:23:33;9.35;;;5.53;;
73850;SDS011;62190;51.548;5.688;2023-07-22T08:26:01;14.58;;;6.97;;
73850;SDS011;62190;51.548;5.688;2023-07-22T08:28:31;9.88;;;6.40;;
73850;SDS011;62190;51.548;5.688;2023-07-22T08:30:58;10.23;;;6.28;;
73850;SDS011;62190;51.548;5.688;2023-07-22T08:33:26;8.93;;;4.97;;
73850;SDS011;62190;51.548;5.688;2023-07-22T08:35:53;8.48;;;5.33;;
73850;SDS011;62190;51.548;5.688;2023-07-22T08:38:21;9.30;;;5.35;;
73850;SDS011;62190;51.548;5.688;2023-07-22T08:40:49;9.60;;;5.35;;
73850;SDS011;62190;51.548;5.688;2023-07-22T08:43:20;10.95;;;5.42;;
73850;SDS011;62190;51.548;5.688;2023-07-22T08:45:49;10.80;;;5.78;;
73850;SDS011;62190;51.548;5.688;2023-07-22T08:48:18;10.40;;;5.75;;
73850;SDS011;62190;51.548;5.688;2023-07-22T08:50:46;11.70;;;5.00;;
73850;SDS011;62190;51.548;5.688;2023-07-22T08:53:19;7.97;;;5.22;;
73850;SDS011;62190;51.548;5.688;2023-07-22T08:55:47;8.98;;;5.30;;
73850;SDS011;62190;51.548;5.688;2023-07-22T08:58:14;9.45;;;4.87;;
73850;SDS011;62190;51.548;5.688;2023-07-22T09:00:42;9.63;;;5.20;;
73850;SDS011;62190;51.548;5.688;2023-07-22T09:03:10;9.28;;;4.85;;
73850;SDS011;62190;51.548;5.688;2023-07-22T09:05:38;8.73;;;4.20;;
73850;SDS011;62190;51.548;5.688;2023-07-22T09:08:06;7.78;;;4.35;;
73850;SDS011;62190;51.548;5.688;2023-07-22T09:10:34;6.22;;;4.12;;
73850;SDS011;62190;51.548;5.688;2023-07-22T09:13:01;6.65;;;4.45;;
73850;SDS011;62190;51.548;5.688;2023-07-22T09:15:29;7.37;;;4.15;;
73850;SDS011;62190;51.548;5.688;2023-07-22T09:17:56;6.42;;;3.92;;
73850;SDS011;62190;51.548;5.688;2023-07-22T09:20:23;12.03;;;4.83;;
73850;SDS011;62190;51.548;5.688;2023-07-22T09:22:53;8.43;;;4.53;;
73850;SDS011;62190;51.548;5.688;2023-07-22T09:25:26;7.03;;;3.80;;
73850;SDS011;62190;51.548;5.688;2023-07-22T09:27:54;4.97;;;3.30;;
73850;SDS011;62190;51.548;5.688;2023-07-22T09:30:27;5.20;;;3.07;;
73850;SDS011;62190;51.548;5.688;2023-07-22T09:32:56;5.00;;;3.08;;
73850;SDS011;62190;51.548;5.688;2023-07-22T09:35:29;6.78;;;3.65;;
73850;SDS011;62190;51.548;5.688;2023-07-22T09:37:59;7.92;;;3.80;;
73850;SDS011;62190;51.548;5.688;2023-07-22T09:40:26;6.15;;;3.45;;
73850;SDS011;62190;51.548;5.688;2023-07-22T09:42:54;6.00;;;3.17;;
73850;SDS011;62190;51.548;5.688;2023-07-22T09:45:23;6.22;;;3.37;;
73850;SDS011;62190;51.548;5.688;2023-07-22T09:47:52;4.85;;;3.60;;
73850;SDS011;62190;51.548;5.688;2023-07-22T09:50:22;5.70;;;3.25;;
73850;SDS011;62190;51.548;5.688;2023-07-22T09:52:57;6.62;;;3.70;;
73850;SDS011;62190;51.548;5.688;2023-07-22T09:55:22;6.83;;;3.00;;
73850;SDS011;62190;51.548;5.688;2023-07-22T09:57:52;5.12;;;2.98;;
73850;SDS011;62190;51.548;5.688;2023-07-22T10:00:20;7.95;;;2.90;;
73850;SDS011;62190;51.548;5.688;2023-07-22T10:02:48;8.08;;;3.22;;
73850;SDS011;62190;51.548;5.688;2023-07-22T10:05:17;8.48;;;3.37;;
73850;SDS011;62190;51.548;5.688;2023-07-22T10:07:47;4.75;;;2.85;;
73850;SDS011;62190;51.548;5.688;2023-07-22T10:10:17;5.35;;;2.75;;
73850;SDS011;62190;51.548;5.688;2023-07-22T10:12:46;5.37;;;2.60;;
73850;SDS011;62190;51.548;5.688;2023-07-22T10:15:14;5.58;;;2.85;;
73850;SDS011;62190;51.548;5.688;2023-07-22T10:17:44;5.20;;;2.87;;
73850;SDS011;62190;51.548;5.688;2023-07-22T10:20:13;7.70;;;2.40;;
73850;SDS011;62190;51.548;5.688;2023-07-22T10:22:45;7.58;;;2.60;;
73850;SDS011;62190;51.548;5.688;2023-07-22T10:25:17;5.50;;;2.60;;
73850;SDS011;62190;51.548;5.688;2023-07-22T10:27:46;6.35;;;3.30;;
73850;SDS011;62190;51.548;5.688;2023-07-22T10:30:14;4.47;;;2.58;;
73850;SDS011;62190;51.548;5.688;2023-07-22T10:32:45;7.72;;;3.45;;
73850;SDS011;62190;51.548;5.688;2023-07-22T10:35:39;4.55;;;2.55;;
73850;SDS011;62190;51.548;5.688;2023-07-22T10:38:08;5.95;;;2.87;;
73850;SDS011;62190;51.548;5.688;2023-07-22T10:43:16;4.55;;;2.75;;
73850;SDS011;62190;51.548;5.688;2023-07-22T10:45:55;5.28;;;2.30;;
73850;SDS011;62190;51.548;5.688;2023-07-22T10:48:17;6.05;;;2.55;;
73850;SDS011;62190;51.548;5.688;2023-07-22T10:58:56;4.22;;;2.20;;
73850;SDS011;62190;51.548;5.688;2023-07-22T11:12:02;5.90;;;2.42;;
73850;SDS011;62190;51.548;5.688;2023-07-22T11:14:45;4.20;;;1.82;;
73850;SDS011;62190;51.548;5.688;2023-07-22T11:17:10;3.55;;;2.15;;
73850;SDS011;62190;51.548;5.688;2023-07-22T11:19:37;3.12;;;1.90;;
73850;SDS011;62190;51.548;5.688;2023-07-22T11:22:05;3.25;;;1.50;;
73850;SDS011;62190;51.548;5.688;2023-07-22T11:24:33;2.95;;;1.10;;
73850;SDS011;62190;51.548;5.688;2023-07-22T11:27:05;5.85;;;1.60;;
73850;SDS011;62190;51.548;5.688;2023-07-22T11:29:35;4.35;;;1.52;;
73850;SDS011;62190;51.548;5.688;2023-07-22T11:32:03;3.58;;;1.05;;
73850;SDS011;62190;51.548;5.688;2023-07-22T11:34:30;3.72;;;1.40;;
73850;SDS011;62190;51.548;5.688;2023-07-22T11:36:58;2.72;;;1.20;;
73850;SDS011;62190;51.548;5.688;2023-07-22T11:39:26;3.35;;;0.85;;
73850;SDS011;62190;51.548;5.688;2023-07-22T11:41:55;3.77;;;1.25;;
73850;SDS011;62190;51.548;5.688;2023-07-22T11:44:25;1.95;;;0.95;;
73850;SDS011;62190;51.548;5.688;2023-07-22T11:49:37;2.40;;;0.90;;
73850;SDS011;62190;51.548;5.688;2023-07-22T11:52:09;3.50;;;1.50;;
73850;SDS011;62190;51.548;5.688;2023-07-22T11:54:38;3.42;;;1.40;;
73850;SDS011;62190;51.548;5.688;2023-07-22T11:57:13;5.12;;;1.42;;
73850;SDS011;62190;51.548;5.688;2023-07-22T11:59:46;3.17;;;1.55;;
73850;SDS011;62190;51.548;5.688;2023-07-22T12:02:18;3.05;;;1.30;;
73850;SDS011;62190;51.548;5.688;2023-07-22T12:05:02;3.25;;;1.52;;
73850;SDS011;62190;51.548;5.688;2023-07-22T12:07:34;2.80;;;1.05;;
73850;SDS011;62190;51.548;5.688;2023-07-22T12:10:03;2.37;;;1.27;;
73850;SDS011;62190;51.548;5.688;2023-07-22T12:12:35;3.65;;;1.25;;
73850;SDS011;62190;51.548;5.688;2023-07-22T12:15:04;4.37;;;1.82;;
73850;SDS011;62190;51.548;5.688;2023-07-22T12:17:52;3.50;;;1.17;;
73850;SDS011;62190;51.548;5.688;2023-07-22T12:20:26;1.95;;;1.12;;
73850;SDS011;62190;51.548;5.688;2023-07-22T12:22:54;3.37;;;1.10;;
73850;SDS011;62190;51.548;5.688;2023-07-22T12:25:23;2.62;;;1.15;;
73850;SDS011;62190;51.548;5.688;2023-07-22T12:27:50;4.37;;;1.60;;
73850;SDS011;62190;51.548;5.688;2023-07-22T12:30:18;2.15;;;1.10;;
73850;SDS011;62190;51.548;5.688;2023-07-22T12:32:45;2.90;;;1.20;;
73850;SDS011;62190;51.548;5.688;2023-07-22T12:35:13;3.95;;;1.20;;
73850;SDS011;62190;51.548;5.688;2023-07-22T12:37:40;2.70;;;1.40;;
73850;SDS011;62190;51.548;5.688;2023-07-22T12:40:08;3.08;;;1.20;;
73850;SDS011;62190;51.548;5.688;2023-07-22T12:42:37;4.12;;;1.10;;
73850;SDS011;62190;51.548;5.688;2023-07-22T12:45:06;3.62;;;1.12;;
73850;SDS011;62190;51.548;5.688;2023-07-22T12:47:34;2.95;;;1.30;;
73850;SDS011;62190;51.548;5.688;2023-07-22T12:50:04;4.05;;;1.72;;
73850;SDS011;62190;51.548;5.688;2023-07-22T12:52:33;3.17;;;1.22;;
73850;SDS011;62190;51.548;5.688;2023-07-22T12:55:01;3.17;;;1.20;;
73850;SDS011;62190;51.548;5.688;2023-07-22T12:57:28;2.83;;;1.20;;
73850;SDS011;62190;51.548;5.688;2023-07-22T12:59:55;2.67;;;1.25;;
73850;SDS011;62190;51.548;5.688;2023-07-22T13:02:23;2.45;;;1.32;;
73850;SDS011;62190;51.548;5.688;2023-07-22T13:04:51;2.75;;;1.40;;
73850;SDS011;62190;51.548;5.688;2023-07-22T13:07:19;4.22;;;1.40;;
73850;SDS011;62190;51.548;5.688;2023-07-22T13:09:46;3.95;;;1.62;;
73850;SDS011;62190;51.548;5.688;2023-07-22T13:12:15;3.08;;;1.15;;
73850;SDS011;62190;51.548;5.688;2023-07-22T13:14:43;3.05;;;1.42;;
73850;SDS011;62190;51.548;5.688;2023-07-22T13:17:11;4.40;;;1.75;;
73850;SDS011;62190;51.548;5.688;2023-07-22T13:19:38;3.20;;;1.52;;
73850;SDS011;62190;51.548;5.688;2023-07-22T13:22:06;2.00;;;1.15;;
73850;SDS011;62190;51.548;5.688;2023-07-22T13:24:33;5.87;;;1.30;;
73850;SDS011;62190;51.548;5.688;2023-07-22T13:27:00;2.58;;;1.20;;
73850;SDS011;62190;51.548;5.688;2023-07-22T13:29:27;4.33;;;1.55;;
73850;SDS011;62190;51.548;5.688;2023-07-22T13:31:55;3.35;;;1.30;;
73850;SDS011;62190;51.548;5.688;2023-07-22T13:34:22;2.62;;;1.20;;
73850;SDS011;62190;51.548;5.688;2023-07-22T13:36:50;3.25;;;1.20;;
73850;SDS011;62190;51.548;5.688;2023-07-22T13:39:17;2.20;;;1.00;;
73850;SDS011;62190;51.548;5.688;2023-07-22T13:41:44;2.65;;;1.25;;
73850;SDS011;62190;51.548;5.688;2023-07-22T13:44:12;3.12;;;1.10;;
73850;SDS011;62190;51.548;5.688;2023-07-22T13:46:39;1.98;;;1.10;;
73850;SDS011;62190;51.548;5.688;2023-07-22T13:49:06;1.87;;;1.17;;
73850;SDS011;62190;51.548;5.688;2023-07-22T13:51:34;2.15;;;1.20;;
73850;SDS011;62190;51.548;5.688;2023-07-22T13:54:01;4.92;;;1.10;;
73850;SDS011;62190;51.548;5.688;2023-07-22T13:56:29;1.67;;;0.85;;
73850;SDS011;62190;51.548;5.688;2023-07-22T13:58:56;4.37;;;1.22;;
73850;SDS011;62190;51.548;5.688;2023-07-22T14:01:24;3.05;;;1.20;;
73850;SDS011;62190;51.548;5.688;2023-07-22T14:03:52;4.20;;;1.12;;
73850;SDS011;62190;51.548;5.688;2023-07-22T14:06:20;3.20;;;0.88;;
73850;SDS011;62190;51.548;5.688;2023-07-22T14:08:47;2.45;;;1.20;;
73850;SDS011;62190;51.548;5.688;2023-07-22T14:11:14;1.52;;;0.72;;
73850;SDS011;62190;51.548;5.688;2023-07-22T14:13:43;1.87;;;1.15;;
73850;SDS011;62190;51.548;5.688;2023-07-22T14:16:10;3.72;;;1.00;;
73850;SDS011;62190;51.548;5.688;2023-07-22T14:18:38;4.00;;;0.93;;
73850;SDS011;62190;51.548;5.688;2023-07-22T14:21:05;2.50;;;0.60;;
73850;SDS011;62190;51.548;5.688;2023-07-22T14:23:33;1.72;;;0.95;;
73850;SDS011;62190;51.548;5.688;2023-07-22T14:26:00;7.03;;;1.07;;
73850;SDS011;62190;51.548;5.688;2023-07-22T14:28:28;2.02;;;0.80;;
73850;SDS011;62190;51.548;5.688;2023-07-22T14:30:55;4.10;;;1.10;;
73850;SDS011;62190;51.548;5.688;2023-07-22T14:33:22;3.17;;;1.07;;
73850;SDS011;62190;51.548;5.688;2023-07-22T14:35:50;2.58;;;1.02;;
73850;SDS011;62190;51.548;5.688;2023-07-22T14:38:18;1.92;;;1.10;;
73850;SDS011;62190;51.548;5.688;2023-07-22T14:40:45;2.95;;;1.20;;
73850;SDS011;62190;51.548;5.688;2023-07-22T14:43:12;1.65;;;0.98;;
73850;SDS011;62190;51.548;5.688;2023-07-22T14:45:40;5.10;;;1.20;;
73850;SDS011;62190;51.548;5.688;2023-07-22T14:48:07;2.75;;;1.07;;
73850;SDS011;62190;51.548;5.688;2023-07-22T14:50:34;2.17;;;1.00;;
73850;SDS011;62190;51.548;5.688;2023-07-22T14:53:01;2.60;;;1.10;;
73850;SDS011;62190;51.548;5.688;2023-07-22T14:55:30;2.72;;;1.22;;
73850;SDS011;62190;51.548;5.688;2023-07-22T14:57:57;1.80;;;1.10;;
73850;SDS011;62190;51.548;5.688;2023-07-22T15:00:24;2.70;;;1.40;;
73850;SDS011;62190;51.548;5.688;2023-07-22T15:02:51;4.40;;;1.45;;
73850;SDS011;62190;51.548;5.688;2023-07-22T15:05:19;3.12;;;1.45;;
73850;SDS011;62190;51.548;5.688;2023-07-22T15:07:46;3.83;;;1.35;;
73850;SDS011;62190;51.548;5.688;2023-07-22T15:10:13;3.58;;;1.20;;